createdAt,value
2023-05-25T00:03:52.723Z,56.03
2023-05-25T00:09:13.796Z,55.71
2023-05-25T00:14:34.591Z,55.79
2023-05-25T00:19:58.178Z,56.32
2023-05-25T00:25:20.975Z,56.45
2023-05-25T00:30:41.803Z,56.68
2023-05-25T00:36:03.474Z,56.33
2023-05-25T00:41:26.139Z,55.99
2023-05-25T00:46:52.455Z,56.16
2023-05-25T00:52:15.590Z,56.39
2023-05-25T00:57:41.585Z,56.36
2023-05-25T01:03:11.883Z,56.35
2023-05-25T01:08:34.302Z,56.83
2023-05-25T01:13:56.297Z,56.37
2023-05-25T01:19:17.182Z,56.60
2023-05-25T01:25:24.793Z,56.63
2023-05-25T01:30:48.845Z,56.23
2023-05-25T01:36:10.068Z,56.70
2023-05-25T01:41:31.687Z,56.45
2023-05-25T01:47:01.082Z,56.57
2023-05-25T01:52:32.563Z,56.80
2023-05-25T01:57:58.012Z,56.68
2023-05-25T02:03:20.175Z,56.59
2023-05-25T02:08:44.182Z,56.53
2023-05-25T02:14:05.277Z,56.44
2023-05-25T02:19:25.961Z,57.54
2023-05-25T02:24:46.805Z,56.80
2023-05-25T02:30:08.462Z,56.42
2023-05-25T02:35:29.599Z,56.99
2023-05-25T02:40:50.353Z,57.77
2023-05-25T02:46:11.084Z,57.55
2023-05-25T02:51:33.602Z,57.72
2023-05-25T02:56:54.329Z,57.00
2023-05-25T03:02:18.548Z,57.03
2023-05-25T03:07:39.563Z,57.33
2023-05-25T03:13:00.604Z,57.24
2023-05-25T03:18:21.529Z,57.28
2023-05-25T03:23:42.738Z,57.15
2023-05-25T03:29:03.498Z,57.63
2023-05-25T03:34:24.795Z,57.77
2023-05-25T03:39:46.024Z,58.00
2023-05-25T03:45:09.136Z,57.98
2023-05-25T03:50:30.896Z,57.94
2023-05-25T03:55:52.468Z,58.05
2023-05-25T04:01:13.831Z,58.39
2023-05-25T04:06:37.513Z,58.36
2023-05-25T04:11:59.190Z,58.41
2023-05-25T04:17:22.442Z,58.28
2023-05-25T04:22:44.999Z,58.56
2023-05-25T04:28:08.513Z,58.20
2023-05-25T04:33:59.144Z,58.17
2023-05-25T04:39:25.613Z,57.21
2023-05-25T04:44:53.354Z,57.41
2023-05-25T04:50:14.596Z,57.37
2023-05-25T04:55:35.972Z,57.10
2023-05-25T05:00:56.710Z,56.56
2023-05-25T05:06:18.149Z,56.21
2023-05-25T05:11:40.066Z,56.26
2023-05-25T05:17:01.834Z,56.05
2023-05-25T05:22:23.099Z,55.65
2023-05-25T05:27:44.357Z,55.43
2023-05-25T05:33:18.274Z,55.54
2023-05-25T05:38:41.632Z,55.00
2023-05-25T05:44:03.073Z,54.97
2023-05-25T05:49:23.799Z,54.54
2023-05-25T05:54:45.027Z,54.97
2023-05-25T06:00:10.053Z,54.92
2023-05-25T06:05:37.202Z,54.47
2023-05-25T06:10:58.300Z,54.60
2023-05-25T06:16:19.618Z,54.86
2023-05-25T06:21:40.680Z,54.95
2023-05-25T06:27:03.300Z,54.32
2023-05-25T06:32:24.072Z,53.86
2023-05-25T06:37:50.204Z,53.60
2023-05-25T06:43:12.995Z,53.91
2023-05-25T06:49:03.654Z,54.22
2023-05-25T06:54:24.333Z,53.70
2023-05-25T06:59:45.123Z,53.87
2023-05-25T07:05:06.555Z,53.65
2023-05-25T07:10:27.294Z,53.58
2023-05-25T07:15:48.282Z,53.54
2023-05-25T07:21:12.123Z,52.83
2023-05-25T07:26:34.709Z,53.05
2023-05-25T07:31:55.434Z,53.27
2023-05-25T07:37:16.129Z,52.89
2023-05-25T07:42:37.239Z,52.95
2023-05-25T07:47:57.896Z,52.14
2023-05-25T07:53:18.555Z,52.22
2023-05-25T07:58:39.394Z,52.71
2023-05-25T08:04:00.330Z,52.56
2023-05-25T08:09:21.573Z,52.39
2023-05-25T08:14:42.417Z,52.29
2023-05-25T08:20:06.246Z,52.88
2023-05-25T08:25:27.168Z,52.55
2023-05-25T08:30:48.006Z,52.40
2023-05-25T08:36:09.416Z,51.34
2023-05-25T08:41:30.510Z,52.39
2023-05-25T08:46:52.017Z,52.24
2023-05-25T08:52:21.629Z,52.38
2023-05-25T08:58:17.264Z,52.24
2023-05-25T09:03:39.595Z,52.22
2023-05-25T09:09:00.736Z,51.77
2023-05-25T09:14:22.575Z,51.96
2023-05-25T09:19:44.128Z,52.47
2023-05-25T09:25:10.297Z,51.45
2023-05-25T09:30:33.266Z,51.85
2023-05-25T09:35:53.872Z,51.30
2023-05-25T09:41:14.960Z,50.77
2023-05-25T09:46:39.400Z,50.90
2023-05-25T09:52:01.452Z,50.27
2023-05-25T09:57:22.353Z,50.64
2023-05-25T10:02:43.349Z,51.16
2023-05-25T10:08:04.780Z,50.83
2023-05-25T10:13:28.697Z,50.11
2023-05-25T10:19:17.699Z,50.08
2023-05-25T10:24:51.199Z,49.63
2023-05-25T10:30:14.565Z,49.65
2023-05-25T10:35:46.759Z,48.76
2023-05-25T10:41:11.986Z,48.99
2023-05-25T10:46:32.799Z,48.91
2023-05-25T10:51:59.638Z,49.36
2023-05-25T10:57:23.223Z,48.74
2023-05-25T11:02:53.969Z,48.25
2023-05-25T11:08:17.802Z,48.19
2023-05-25T11:13:40.799Z,47.48
2023-05-25T11:19:02.555Z,47.65
2023-05-25T11:24:23.651Z,47.70
2023-05-25T11:29:44.465Z,47.93
2023-05-25T11:35:09.331Z,47.44
2023-05-25T11:40:31.308Z,47.20
2023-05-25T11:45:58.637Z,47.81
2023-05-25T11:51:24.486Z,47.52
2023-05-25T11:56:45.584Z,47.23
2023-05-25T12:02:06.435Z,47.35
2023-05-25T12:07:28.784Z,47.14
2023-05-25T12:12:51.599Z,47.39
2023-05-25T12:18:12.517Z,47.06
2023-05-25T12:23:33.399Z,47.08
2023-05-25T12:29:02.324Z,46.80
2023-05-25T12:34:27.730Z,46.42
2023-05-25T12:39:49.112Z,47.11
2023-05-25T12:45:11.442Z,46.48
2023-05-25T12:50:32.839Z,45.29
2023-05-25T12:56:04.519Z,45.30
2023-05-25T13:01:27.191Z,45.75
2023-05-25T13:06:48.205Z,45.14
2023-05-25T13:12:09.490Z,45.09
2023-05-25T13:17:30.181Z,46.18
2023-05-25T13:22:52.708Z,45.50
2023-05-25T13:28:13.728Z,44.89
2023-05-25T13:33:34.437Z,44.95
2023-05-25T13:38:55.727Z,45.67
2023-05-25T13:44:17.786Z,45.05
2023-05-25T13:49:39.290Z,44.68
2023-05-25T13:55:00.214Z,45.08
2023-05-25T14:00:21.353Z,45.30
2023-05-25T14:05:42.747Z,45.13
2023-05-25T14:11:04.045Z,44.89
2023-05-25T14:16:25.273Z,45.16
2023-05-25T14:21:48.292Z,44.79
2023-05-25T14:27:12.493Z,44.94
2023-05-25T14:32:33.280Z,45.00
2023-05-25T14:37:54.081Z,44.98
2023-05-25T14:43:14.622Z,44.40
2023-05-25T14:48:36.333Z,44.17
2023-05-25T14:53:57.865Z,44.40
2023-05-25T14:59:18.875Z,44.78
2023-05-25T15:04:39.750Z,44.41
2023-05-25T15:10:00.641Z,44.04
2023-05-25T15:15:21.702Z,44.64
2023-05-25T15:20:42.475Z,44.23
2023-05-25T15:26:04.377Z,44.06
2023-05-25T15:31:25.717Z,44.41
2023-05-25T15:36:46.958Z,44.06
2023-05-25T15:42:07.885Z,44.10
2023-05-25T15:47:28.878Z,43.87
2023-05-25T15:52:49.843Z,44.06
2023-05-25T15:58:11.564Z,43.93
2023-05-25T16:03:32.748Z,44.14
2023-05-25T16:08:53.970Z,43.78
2023-05-25T16:14:14.673Z,44.10
2023-05-25T16:19:35.517Z,44.91
2023-05-25T16:24:56.213Z,44.05
2023-05-25T16:30:17.082Z,44.24
2023-05-25T16:35:37.692Z,44.63
2023-05-25T16:40:58.475Z,44.68
2023-05-25T16:46:21.143Z,45.16
2023-05-25T16:51:42.910Z,45.13
2023-05-25T16:57:03.848Z,45.29
2023-05-25T17:02:25.236Z,45.62
2023-05-25T17:07:46.267Z,45.60
2023-05-25T17:13:07.163Z,45.75
2023-05-25T17:18:28.713Z,45.90
2023-05-25T17:23:49.629Z,46.21
2023-05-25T17:29:10.492Z,46.45
2023-05-25T17:34:31.209Z,46.24
2023-05-25T17:39:52.218Z,46.16
2023-05-25T17:45:13.382Z,46.41
2023-05-25T17:50:34.548Z,46.68
2023-05-25T17:55:55.746Z,46.79
2023-05-25T18:01:16.963Z,46.57
2023-05-25T18:06:37.816Z,46.81
2023-05-25T18:11:58.698Z,46.94
2023-05-25T18:17:19.665Z,46.78
2023-05-25T18:22:41.434Z,46.70
2023-05-25T18:28:02.596Z,46.58
2023-05-25T18:33:23.280Z,46.69
2023-05-25T18:38:44.251Z,46.90
2023-05-25T18:44:05.404Z,47.17
2023-05-25T18:49:27.067Z,47.31
2023-05-25T18:54:49.293Z,47.28
2023-05-25T19:00:10.661Z,47.53
2023-05-25T19:05:35.008Z,47.73
2023-05-25T19:10:55.828Z,47.80
2023-05-25T19:16:16.502Z,48.12
2023-05-25T19:21:37.290Z,47.95
2023-05-25T19:26:57.980Z,48.14
2023-05-25T19:32:18.841Z,48.10
2023-05-25T19:37:41.270Z,48.41
2023-05-25T19:43:02.449Z,48.38
2023-05-25T19:48:25.261Z,48.52
2023-05-25T19:53:48.044Z,48.64
2023-05-25T19:59:09.153Z,48.82
2023-05-25T20:04:29.921Z,48.94
2023-05-25T20:09:50.720Z,48.89
2023-05-25T20:15:11.858Z,49.05
2023-05-25T20:20:32.830Z,49.42
2023-05-25T20:25:53.427Z,49.29
2023-05-25T20:31:14.488Z,49.52
2023-05-25T20:36:35.130Z,49.53
2023-05-25T20:41:56.074Z,49.61
2023-05-25T20:47:17.092Z,49.65
2023-05-25T20:52:37.691Z,49.98
2023-05-25T20:58:00.750Z,50.34
2023-05-25T21:03:21.721Z,50.44
2023-05-25T21:08:42.521Z,50.58
2023-05-25T21:14:03.393Z,50.61
2023-05-25T21:19:24.606Z,50.97
2023-05-25T21:24:45.555Z,50.87
2023-05-25T21:30:07.223Z,51.37
2023-05-25T21:35:28.417Z,51.23
2023-05-25T21:40:49.043Z,51.29
2023-05-25T21:46:09.832Z,51.23
2023-05-25T21:51:31.805Z,51.26
2023-05-25T21:56:52.874Z,51.45
2023-05-25T22:02:13.657Z,51.77
2023-05-25T22:07:34.348Z,51.94
2023-05-25T22:12:55.227Z,51.88
2023-05-25T22:18:16.241Z,52.05
2023-05-25T22:23:37.314Z,52.14
2023-05-25T22:28:58.244Z,52.17
2023-05-25T22:34:19.006Z,52.36
2023-05-25T22:39:40.043Z,52.48
2023-05-25T22:45:00.980Z,52.44
2023-05-25T22:50:21.725Z,52.67
2023-05-25T22:55:43.621Z,52.65
2023-05-25T23:01:05.436Z,52.68
2023-05-25T23:06:26.464Z,53.01
2023-05-25T23:11:46.978Z,52.67
2023-05-25T23:17:07.642Z,53.09
2023-05-25T23:22:28.325Z,53.47
2023-05-25T23:27:49.044Z,53.55
2023-05-25T23:33:10.437Z,53.54
2023-05-25T23:38:31.529Z,53.74
2023-05-25T23:43:52.480Z,53.80
2023-05-25T23:49:13.147Z,54.04
2023-05-25T23:54:34.030Z,54.18
2023-05-25T23:59:54.684Z,54.23
